Time;durP1;ratioP1;P1;durP2;ratioP2;P2;SDS_P1;SDS_P2;PMS_P1;PMS_P2;Temp;Humidity;BMP_temperature;BMP_pressure;BME280_temperature;BME280_humidity;BME280_pressure;Samples;Min_cycle;Max_cycle;Signal;HPM_P1;HPM_P2
2023/08/21 00:01:10;;;;;;;9.77;8.87;;;28.30;54.90;;;;;;5133071;28;20180;-55
2023/08/21 00:03:36;;;;;;;9.97;8.97;;;28.40;54.90;;;;;;5132735;27;20639;-53
2023/08/21 00:06:02;;;;;;;9.60;8.70;;;28.30;54.80;;;;;;5132445;28;20193;-53
2023/08/21 00:08:32;;;;;;;9.43;8.60;;;28.30;54.70;;;;;;5132700;28;20206;-55
2023/08/21 00:11:05;;;;;;;9.60;8.80;;;28.30;54.70;;;;;;5135511;27;20189;-53
2023/08/21 00:13:31;;;;;;;10.30;7.10;;;28.20;54.60;;;;;;5137114;27;20392;-55
2023/08/21 00:15:57;;;;;;;9.27;8.37;;;28.20;54.80;;;;;;5136559;27;20660;-55
2023/08/21 00:18:41;;;;;;;9.20;8.30;;;28.20;55.50;;;;;;5136675;27;20651;-53
2023/08/21 00:21:07;;;;;;;15.17;8.13;;;28.20;54.80;;;;;;5136690;27;20203;-56
2023/08/21 00:23:51;;;;;;;11.07;8.80;;;28.20;55.10;;;;;;5136529;27;20399;-52
2023/08/21 00:26:18;;;;;;;8.43;7.50;;;28.10;54.80;;;;;;5136354;27;20249;-53
2023/08/21 00:28:43;;;;;;;9.10;8.37;;;28.10;55.00;;;;;;5136649;27;20485;-54
2023/08/21 00:31:09;;;;;;;10.30;7.80;;;28.10;55.10;;;;;;5136552;27;20530;-53
2023/08/21 00:33:37;;;;;;;9.47;8.13;;;28.10;55.20;;;;;;5136406;27;20650;-53
2023/08/21 00:36:03;;;;;;;8.67;7.87;;;28.10;55.30;;;;;;5135939;27;20603;-54
2023/08/21 00:38:28;;;;;;;9.23;7.93;;;28.20;55.30;;;;;;5136516;27;20567;-54
2023/08/21 00:40:54;;;;;;;9.33;8.23;;;28.20;55.00;;;;;;5136325;27;21159;-55
2023/08/21 00:43:20;;;;;;;8.53;7.50;;;28.10;54.90;;;;;;5136153;27;20178;-52
2023/08/21 00:45:48;;;;;;;11.70;6.80;;;28.20;54.80;;;;;;5136187;27;20202;-54
2023/08/21 00:48:15;;;;;;;8.00;7.20;;;28.20;54.90;;;;;;5134861;27;20943;-55
2023/08/21 00:50:41;;;;;;;8.93;8.13;;;28.10;54.70;;;;;;5135817;27;20537;-54
2023/08/21 00:53:07;;;;;;;7.80;7.10;;;28.10;54.50;;;;;;5136084;27;20905;-53
2023/08/21 00:55:34;;;;;;;8.20;7.40;;;28.10;54.50;;;;;;5135658;27;20428;-56
2023/08/21 00:58:03;;;;;;;11.70;7.50;;;28.00;54.50;;;;;;5135945;27;20492;-52
2023/08/21 01:00:29;;;;;;;8.00;7.30;;;28.00;54.60;;;;;;5135920;27;20897;-56
2023/08/21 01:02:55;;;;;;;9.67;7.70;;;28.00;54.70;;;;;;5135917;27;20485;-51
2023/08/21 01:05:23;;;;;;;8.17;7.37;;;28.00;54.60;;;;;;5135342;27;20460;-55
2023/08/21 01:08:03;;;;;;;7.83;7.07;;;28.00;54.40;;;;;;5135736;27;20492;-53
2023/08/21 01:10:38;;;;;;;8.10;7.40;;;28.00;54.30;;;;;;5135721;27;20388;-57
2023/08/21 01:13:20;;;;;;;9.73;8.73;;;27.90;53.90;;;;;;5135632;27;20400;-51
2023/08/21 01:15:47;;;;;;;9.60;7.77;;;27.90;54.00;;;;;;5135255;27;20457;-56
2023/08/21 01:18:16;;;;;;;7.70;7.10;;;27.80;54.10;;;;;;5135615;27;20432;-54
2023/08/21 01:20:43;;;;;;;7.63;6.93;;;27.80;54.20;;;;;;5135024;27;20405;-57
2023/08/21 01:23:08;;;;;;;8.30;7.50;;;27.80;54.30;;;;;;5134607;27;20727;-54
2023/08/21 01:25:35;;;;;;;8.20;7.43;;;27.70;54.40;;;;;;5135511;27;20422;-52
2023/08/21 01:28:01;;;;;;;9.47;7.30;;;27.70;54.40;;;;;;5135669;27;20518;-55
2023/08/21 01:30:35;;;;;;;8.70;7.90;;;27.80;54.40;;;;;;5135308;27;20431;-53
2023/08/21 01:33:13;;;;;;;9.00;7.03;;;27.70;54.50;;;;;;5135259;27;20469;-53
2023/08/21 01:35:39;;;;;;;7.70;7.10;;;27.70;54.70;;;;;;5134848;27;20444;-55
2023/08/21 01:38:05;;;;;;;8.17;7.40;;;27.70;54.70;;;;;;5135269;27;20544;-53
2023/08/21 01:40:31;;;;;;;9.33;8.37;;;27.70;54.80;;;;;;5133846;27;20404;-55
2023/08/21 01:42:58;;;;;;;9.07;8.13;;;27.80;54.70;;;;;;5134966;27;20424;-55
2023/08/21 01:45:24;;;;;;;9.23;8.00;;;27.80;54.70;;;;;;5135014;27;20184;-52
2023/08/21 01:47:49;;;;;;;7.60;6.87;;;27.80;54.50;;;;;;5135050;27;20401;-52
2023/08/21 01:50:16;;;;;;;9.40;7.60;;;27.70;54.30;;;;;;5134888;27;20433;-57
2023/08/21 01:52:42;;;;;;;10.23;8.13;;;27.70;54.30;;;;;;5134760;27;20199;-52
2023/08/21 01:55:08;;;;;;;12.50;8.53;;;27.70;54.40;;;;;;5134519;27;20412;-52
2023/08/21 01:57:34;;;;;;;8.87;8.07;;;27.60;54.50;;;;;;5134772;27;20414;-56
2023/08/21 02:00:00;;;;;;;8.03;7.33;;;27.60;54.50;;;;;;5134828;27;20392;-56
2023/08/21 02:02:26;;;;;;;8.23;7.40;;;27.60;54.60;;;;;;5135008;27;20403;-53
2023/08/21 02:04:52;;;;;;;12.13;7.60;;;27.70;54.50;;;;;;5134466;27;20551;-55
2023/08/21 02:07:17;;;;;;;8.37;7.50;;;27.60;54.40;;;;;;5134557;27;20171;-53
2023/08/21 02:09:43;;;;;;;10.00;8.53;;;27.60;54.30;;;;;;5134487;27;20183;-52
2023/08/21 02:12:09;;;;;;;9.57;8.63;;;27.60;54.10;;;;;;5134393;27;20201;-55
2023/08/21 02:14:35;;;;;;;8.50;7.80;;;27.60;54.20;;;;;;5134174;27;20696;-53
2023/08/21 02:17:02;;;;;;;8.37;7.17;;;27.60;54.30;;;;;;5134346;27;20447;-53
2023/08/21 02:19:28;;;;;;;11.00;7.77;;;27.50;54.10;;;;;;5134373;27;20246;-53
2023/08/21 02:21:53;;;;;;;9.80;7.90;;;27.50;54.00;;;;;;5134587;27;20428;-52
2023/08/21 02:24:19;;;;;;;10.90;8.83;;;27.50;54.00;;;;;;5133950;27;20175;-54
2023/08/21 02:26:45;;;;;;;11.77;7.20;;;27.50;54.00;;;;;;5134137;27;20233;-57
2023/08/21 02:29:11;;;;;;;8.57;7.80;;;27.40;54.10;;;;;;5134248;27;20245;-52
2023/08/21 02:31:37;;;;;;;10.80;8.43;;;27.40;54.20;;;;;;5134335;27;20534;-55
2023/08/21 02:34:03;;;;;;;8.30;7.37;;;27.40;54.30;;;;;;5133808;27;20976;-53
2023/08/21 02:36:32;;;;;;;9.20;7.50;;;27.40;54.30;;;;;;5133895;27;20227;-53
2023/08/21 02:38:58;;;;;;;9.30;7.83;;;27.40;54.30;;;;;;5133940;27;20529;-55
2023/08/21 02:41:24;;;;;;;8.63;7.90;;;27.40;54.40;;;;;;5133862;27;20910;-51
2023/08/21 02:43:50;;;;;;;8.00;7.30;;;27.30;54.30;;;;;;5134066;27;20816;-53
2023/08/21 02:46:17;;;;;;;9.03;8.23;;;27.30;54.30;;;;;;5133553;27;20190;-53
2023/08/21 02:48:43;;;;;;;11.73;7.57;;;27.30;54.30;;;;;;5134040;27;20454;-55
2023/08/21 02:51:08;;;;;;;9.23;7.50;;;27.30;54.30;;;;;;5133646;27;20448;-53
2023/08/21 02:53:34;;;;;;;8.70;7.90;;;27.30;54.20;;;;;;5133574;27;20174;-51
2023/08/21 02:56:00;;;;;;;8.27;7.57;;;27.30;54.10;;;;;;5133428;27;20196;-55
2023/08/21 02:58:26;;;;;;;10.20;8.00;;;27.30;54.10;;;;;;5133916;27;20219;-55
2023/08/21 03:00:52;;;;;;;8.77;7.97;;;27.30;54.20;;;;;;5133583;27;20171;-53
2023/08/21 03:03:17;;;;;;;8.93;8.03;;;27.30;54.30;;;;;;5133487;27;20171;-52
2023/08/21 03:05:43;;;;;;;8.63;7.37;;;27.20;54.30;;;;;;5133230;27;20187;-56
2023/08/21 03:08:09;;;;;;;9.43;7.93;;;27.20;54.40;;;;;;5133465;27;20399;-56
2023/08/21 03:10:36;;;;;;;8.57;7.77;;;27.20;54.60;;;;;;5133544;27;20570;-53
2023/08/21 03:13:02;;;;;;;10.33;8.23;;;27.20;54.80;;;;;;5133357;27;20652;-56
2023/08/21 03:15:29;;;;;;;11.23;8.50;;;27.20;55.00;;;;;;5131815;27;20465;-53
2023/08/21 03:17:55;;;;;;;15.83;8.87;;;27.20;54.90;;;;;;5133386;27;20408;-54
2023/08/21 03:20:21;;;;;;;12.23;8.07;;;27.20;55.00;;;;;;5133570;27;20826;-52
2023/08/21 03:22:47;;;;;;;10.53;9.00;;;27.20;55.00;;;;;;5133438;27;20513;-53
2023/08/21 03:28:18;;;;;;;9.97;8.00;;;27.30;54.80;;;;;;5132600;27;20411;-52
2023/08/21 03:30:44;;;;;;;8.87;7.80;;;27.20;55.10;;;;;;5132993;27;20417;-54
2023/08/21 03:33:10;;;;;;;13.03;8.43;;;27.20;55.10;;;;;;5132929;27;20396;-53
2023/08/21 03:35:36;;;;;;;9.70;8.73;;;27.20;55.00;;;;;;5132590;27;20226;-53
2023/08/21 03:38:01;;;;;;;10.80;7.73;;;27.20;55.10;;;;;;5133031;27;20198;-55
2023/08/21 03:40:27;;;;;;;10.00;9.00;;;27.20;55.00;;;;;;5133039;27;20200;-52
2023/08/21 03:42:53;;;;;;;10.77;8.80;;;27.20;55.00;;;;;;5133075;27;20174;-53
2023/08/21 03:45:23;;;;;;;9.77;8.10;;;27.20;54.90;;;;;;5132337;27;20194;-53
2023/08/21 03:47:49;;;;;;;10.03;8.10;;;27.20;54.90;;;;;;5132676;28;20181;-55
2023/08/21 03:50:15;;;;;;;8.40;7.60;;;27.20;54.70;;;;;;5132887;28;20479;-52
2023/08/21 03:52:40;;;;;;;8.17;7.37;;;27.10;54.60;;;;;;5133139;27;20199;-53
2023/08/21 03:55:06;;;;;;;8.47;7.67;;;27.10;54.60;;;;;;5132559;27;20473;-56
2023/08/21 03:57:32;;;;;;;16.23;7.83;;;27.10;54.60;;;;;;5132858;28;20167;-56
2023/08/21 03:59:58;;;;;;;10.00;9.10;;;27.00;54.60;;;;;;5133076;28;20487;-53
2023/08/21 04:02:24;;;;;;;8.63;7.83;;;27.00;54.50;;;;;;5132718;27;20216;-53
2023/08/21 04:04:50;;;;;;;8.87;7.97;;;26.90;54.00;;;;;;5132480;28;20412;-55
2023/08/21 04:07:16;;;;;;;8.07;7.27;;;27.00;54.60;;;;;;5132785;28;20432;-54
2023/08/21 04:09:41;;;;;;;8.83;8.07;;;26.90;54.10;;;;;;5132771;27;20170;-53
2023/08/21 04:12:07;;;;;;;8.17;7.37;;;26.90;54.10;;;;;;5132611;28;20210;-58
2023/08/21 04:14:33;;;;;;;9.83;8.13;;;26.90;54.10;;;;;;5132481;27;20171;-57
2023/08/21 04:16:59;;;;;;;11.57;8.10;;;26.90;54.20;;;;;;5132454;28;20435;-53
2023/08/21 04:19:29;;;;;;;9.90;7.90;;;26.90;54.30;;;;;;5132907;28;20532;-52
2023/08/21 04:21:55;;;;;;;11.00;8.67;;;26.80;54.40;;;;;;5132866;27;20531;-59
2023/08/21 04:24:21;;;;;;;8.90;7.77;;;26.80;54.50;;;;;;5132293;27;20513;-59
2023/08/21 04:26:47;;;;;;;9.07;8.17;;;26.80;54.70;;;;;;5132577;28;20237;-52
2023/08/21 04:29:13;;;;;;;15.30;7.90;;;26.80;54.90;;;;;;5132547;28;20178;-52
2023/08/21 04:31:38;;;;;;;10.07;8.23;;;26.80;55.70;;;;;;5132396;27;20236;-57
2023/08/21 04:34:04;;;;;;;8.47;7.67;;;26.90;54.90;;;;;;5132281;27;20170;-53
2023/08/21 04:36:30;;;;;;;9.40;8.40;;;26.90;54.90;;;;;;5132512;28;20194;-53
2023/08/21 04:38:56;;;;;;;9.87;7.50;;;26.90;54.80;;;;;;5132526;28;20578;-57
2023/08/21 04:41:21;;;;;;;7.67;6.97;;;26.90;54.70;;;;;;5132409;28;20171;-59
2023/08/21 04:43:47;;;;;;;12.33;8.83;;;26.90;54.70;;;;;;5132442;27;20178;-51
2023/08/21 04:46:13;;;;;;;9.20;8.30;;;26.90;54.60;;;;;;5131989;28;20687;-51
2023/08/21 04:48:39;;;;;;;7.83;7.03;;;26.90;54.70;;;;;;5132674;27;20258;-56
2023/08/21 04:51:05;;;;;;;11.50;8.77;;;26.90;54.70;;;;;;5132263;27;20447;-53
2023/08/21 04:53:31;;;;;;;8.07;7.13;;;26.90;54.70;;;;;;5132382;27;20171;-54
2023/08/21 04:56:00;;;;;;;8.90;8.00;;;26.90;54.70;;;;;;5132120;27;20182;-57
2023/08/21 04:58:25;;;;;;;9.20;8.20;;;26.90;54.80;;;;;;5135323;27;20616;-50
2023/08/21 05:00:51;;;;;;;10.20;8.50;;;26.90;54.80;;;;;;5135845;27;20491;-52
2023/08/21 05:03:17;;;;;;;8.80;8.00;;;26.90;54.90;;;;;;5135841;27;20258;-58
2023/08/21 05:05:52;;;;;;;12.03;9.40;;;26.90;55.00;;;;;;5135479;27;20190;-54
2023/08/21 05:08:18;;;;;;;9.20;8.43;;;27.00;55.70;;;;;;5135962;27;20598;-52
2023/08/21 05:10:44;;;;;;;9.17;8.33;;;27.00;55.70;;;;;;5135694;27;20413;-56
2023/08/21 05:13:10;;;;;;;8.60;7.80;;;27.00;55.80;;;;;;5135708;27;20171;-56
2023/08/21 05:15:36;;;;;;;9.67;8.77;;;27.00;55.80;;;;;;5135550;27;20191;-52
2023/08/21 05:18:01;;;;;;;16.30;8.20;;;27.10;55.90;;;;;;5135646;27;20175;-54
2023/08/21 05:20:27;;;;;;;15.63;9.40;;;27.20;55.80;;;;;;5135595;27;20167;-59
2023/08/21 05:22:53;;;;;;;11.40;8.37;;;27.20;55.70;;;;;;5135641;27;20408;-52
2023/08/21 05:25:19;;;;;;;12.50;8.90;;;27.30;55.80;;;;;;5135224;27;20683;-54
2023/08/21 05:27:45;;;;;;;10.27;9.17;;;27.30;55.80;;;;;;5135484;27;20582;-59
2023/08/21 05:30:13;;;;;;;12.40;8.60;;;27.30;55.80;;;;;;5135337;27;20986;-52
2023/08/21 05:32:39;;;;;;;11.40;10.40;;;27.50;55.70;;;;;;5135264;27;20203;-55
2023/08/21 05:35:05;;;;;;;10.60;9.50;;;27.50;55.60;;;;;;5134861;27;20428;-57
2023/08/21 05:37:31;;;;;;;16.17;9.87;;;27.50;55.40;;;;;;5135292;27;20397;-51
2023/08/21 05:39:57;;;;;;;9.80;8.87;;;27.60;55.50;;;;;;5135196;27;20403;-54
2023/08/21 05:42:23;;;;;;;15.77;9.70;;;27.60;55.50;;;;;;5135039;27;20176;-55
2023/08/21 05:44:49;;;;;;;12.83;10.13;;;27.60;55.60;;;;;;5135147;27;20476;-53
2023/08/21 05:47:14;;;;;;;15.83;11.37;;;27.70;55.50;;;;;;5135175;27;20629;-54
2023/08/21 05:49:40;;;;;;;13.33;10.07;;;27.70;55.50;;;;;;5135080;27;20197;-55
2023/08/21 05:52:06;;;;;;;13.93;10.57;;;27.80;55.40;;;;;;5134902;27;20572;-59
2023/08/21 05:54:32;;;;;;;11.53;10.43;;;27.80;56.10;;;;;;5133326;27;20470;-53
2023/08/21 05:56:58;;;;;;;15.50;11.73;;;27.90;55.30;;;;;;5134933;27;20532;-52
2023/08/21 05:59:29;;;;;;;11.60;9.17;;;28.00;55.60;;;;;;5134726;27;20532;-56
2023/08/21 06:01:55;;;;;;;10.67;9.67;;;28.00;55.30;;;;;;5134911;27;20188;-54
2023/08/21 06:04:21;;;;;;;12.40;11.10;;;28.00;55.20;;;;;;5134408;27;20409;-54
2023/08/21 06:06:47;;;;;;;12.40;10.43;;;28.10;55.10;;;;;;5134850;27;20228;-57
2023/08/21 06:09:12;;;;;;;12.67;11.57;;;28.20;55.00;;;;;;5134672;27;20811;-52
2023/08/21 06:11:38;;;;;;;13.73;12.40;;;28.20;55.00;;;;;;5134691;27;20605;-53
2023/08/21 06:14:04;;;;;;;17.60;12.90;;;28.30;55.00;;;;;;5134342;27;20693;-55
2023/08/21 06:16:31;;;;;;;12.07;10.93;;;28.30;54.90;;;;;;5134576;27;20468;-52
2023/08/21 06:18:56;;;;;;;13.27;11.87;;;28.40;54.80;;;;;;5134370;27;20405;-57
2023/08/21 06:21:22;;;;;;;13.63;12.30;;;28.40;54.60;;;;;;5134369;27;20408;-51
2023/08/21 06:23:48;;;;;;;14.63;11.83;;;28.40;54.70;;;;;;5133005;27;20175;-54
2023/08/21 06:26:14;;;;;;;16.07;13.77;;;28.40;54.70;;;;;;5133889;27;20200;-56
2023/08/21 06:28:40;;;;;;;15.00;12.33;;;28.50;54.80;;;;;;5134169;27;20188;-54
2023/08/21 06:31:08;;;;;;;13.77;12.27;;;28.50;54.70;;;;;;5134122;27;20204;-54
2023/08/21 06:33:34;;;;;;;15.07;13.73;;;28.60;55.10;;;;;;5134134;27;20177;-56
2023/08/21 06:36:00;;;;;;;15.13;12.43;;;28.60;54.40;;;;;;5133762;27;20994;-54
2023/08/21 06:38:25;;;;;;;14.63;13.20;;;28.60;54.40;;;;;;5133992;27;20174;-53
2023/08/21 06:40:51;;;;;;;15.33;13.80;;;28.60;54.50;;;;;;5133851;27;20182;-54
2023/08/21 06:43:17;;;;;;;14.30;12.80;;;28.60;54.20;;;;;;5133853;27;20208;-54
2023/08/21 06:45:43;;;;;;;14.93;13.40;;;28.60;54.30;;;;;;5133645;27;20189;-52
2023/08/21 06:48:09;;;;;;;15.03;13.43;;;28.60;54.50;;;;;;5133942;27;20433;-56
2023/08/21 06:50:37;;;;;;;15.23;13.73;;;28.60;54.80;;;;;;5133787;27;20595;-50
2023/08/21 06:53:03;;;;;;;13.77;12.47;;;28.80;54.80;;;;;;5133619;27;20597;-58
2023/08/21 06:55:29;;;;;;;15.77;14.33;;;28.80;55.00;;;;;;5133315;27;20423;-54
2023/08/21 06:57:54;;;;;;;13.23;11.93;;;28.90;53.90;;;;;;5133757;27;20409;-51
2023/08/21 07:00:20;;;;;;;13.00;11.67;;;28.80;53.10;;;;;;5133681;27;20941;-53
2023/08/21 07:02:46;;;;;;;14.73;12.63;;;28.80;53.80;;;;;;5133594;27;20182;-58
2023/08/21 07:05:12;;;;;;;11.67;10.67;;;28.80;54.10;;;;;;5133316;27;20190;-59
2023/08/21 07:07:38;;;;;;;13.70;11.93;;;28.90;53.70;;;;;;5133803;27;20180;-53
2023/08/21 07:10:04;;;;;;;13.10;11.90;;;29.00;54.00;;;;;;5133735;27;20760;-54
2023/08/21 07:12:30;;;;;;;13.93;12.60;;;29.00;54.40;;;;;;5133581;27;20205;-51
2023/08/21 07:14:56;;;;;;;12.47;11.17;;;29.10;54.30;;;;;;5133121;27;20784;-53
2023/08/21 07:17:22;;;;;;;14.37;12.90;;;29.10;54.20;;;;;;5133384;27;20227;-58
2023/08/21 07:19:49;;;;;;;12.50;11.20;;;29.10;54.00;;;;;;5132964;27;20173;-55
2023/08/21 07:22:14;;;;;;;13.23;10.90;;;29.10;53.50;;;;;;5133247;27;20208;-53
2023/08/21 07:24:40;;;;;;;13.60;12.20;;;29.10;53.80;;;;;;5133453;27;20412;-53
2023/08/21 07:27:06;;;;;;;16.93;12.27;;;29.10;54.00;;;;;;5133151;27;20187;-53
2023/08/21 07:29:32;;;;;;;16.50;13.73;;;29.10;54.10;;;;;;5133147;27;20174;-58
2023/08/21 07:31:58;;;;;;;13.13;11.73;;;29.10;53.40;;;;;;5133004;27;20198;-52
2023/08/21 07:34:23;;;;;;;15.67;13.77;;;29.20;54.20;;;;;;5132742;27;20195;-52
2023/08/21 07:36:49;;;;;;;13.00;11.53;;;29.30;54.30;;;;;;5132931;27;20189;-53
2023/08/21 07:39:15;;;;;;;11.80;10.17;;;29.40;55.00;;;;;;5131820;27;20555;-56
2023/08/21 07:41:41;;;;;;;12.47;11.20;;;29.60;55.00;;;;;;5132994;27;20181;-52
2023/08/21 07:44:07;;;;;;;13.60;11.07;;;29.60;53.70;;;;;;5132780;28;20174;-53
2023/08/21 07:46:33;;;;;;;14.03;10.27;;;29.70;53.30;;;;;;5131587;28;20667;-55
2023/08/21 07:48:58;;;;;;;10.87;9.60;;;29.80;53.30;;;;;;5132988;27;20745;-53
2023/08/21 07:51:24;;;;;;;12.17;10.80;;;29.90;53.10;;;;;;5133074;27;20237;-54
2023/08/21 07:53:50;;;;;;;14.10;12.83;;;30.10;53.80;;;;;;5132900;27;20174;-57
2023/08/21 07:56:16;;;;;;;16.37;12.80;;;30.20;54.50;;;;;;5132649;27;20823;-54
2023/08/21 07:58:41;;;;;;;15.23;10.03;;;30.30;54.20;;;;;;5133042;28;20177;-53
2023/08/21 08:01:07;;;;;;;15.07;13.57;;;30.40;53.20;;;;;;5132861;28;20223;-55
2023/08/21 08:03:33;;;;;;;11.40;10.30;;;30.50;51.20;;;;;;5132829;27;20170;-56
2023/08/21 08:05:59;;;;;;;12.90;11.70;;;30.50;51.30;;;;;;5132454;27;20197;-52
2023/08/21 08:08:25;;;;;;;17.43;13.30;;;30.40;52.00;;;;;;5132727;28;20181;-52
2023/08/21 08:10:51;;;;;;;14.80;13.20;;;30.50;51.80;;;;;;5132951;27;20181;-56
2023/08/21 08:13:17;;;;;;;12.80;11.60;;;30.50;52.40;;;;;;5132760;27;20468;-58
2023/08/21 08:15:42;;;;;;;15.63;14.23;;;30.50;52.00;;;;;;5132511;28;20270;-52
2023/08/21 08:18:12;;;;;;;13.93;11.77;;;30.60;52.60;;;;;;5132673;27;20404;-57
2023/08/21 08:20:38;;;;;;;12.10;10.90;;;30.70;51.60;;;;;;5132610;27;20166;-54
2023/08/21 08:23:04;;;;;;;15.33;13.73;;;30.70;52.30;;;;;;5132741;27;20715;-52
2023/08/21 08:25:30;;;;;;;12.53;10.87;;;30.70;51.10;;;;;;5132321;27;20427;-58
2023/08/21 08:27:56;;;;;;;14.63;11.90;;;30.80;51.20;;;;;;5132740;27;20408;-53
2023/08/21 08:30:23;;;;;;;12.63;11.37;;;30.80;50.30;;;;;;5132483;27;20171;-54
2023/08/21 08:32:49;;;;;;;11.67;10.57;;;30.90;50.40;;;;;;5136363;27;20236;-56
2023/08/21 08:35:15;;;;;;;11.47;10.47;;;30.90;50.30;;;;;;5136026;27;20525;-51
2023/08/21 08:37:41;;;;;;;11.80;10.60;;;31.00;50.20;;;;;;5136445;27;20189;-58
2023/08/21 08:40:11;;;;;;;13.70;12.30;;;31.10;49.90;;;;;;5136601;27;20408;-55
2023/08/21 08:42:37;;;;;;;11.20;10.00;;;31.10;49.90;;;;;;5136347;27;20411;-52
2023/08/21 08:45:04;;;;;;;12.00;10.70;;;31.20;49.80;;;;;;5136253;27;20445;-58
2023/08/21 08:47:33;;;;;;;12.37;11.07;;;31.20;49.50;;;;;;5136298;27;20404;-53
2023/08/21 08:50:01;;;;;;;11.37;10.20;;;31.30;50.00;;;;;;5136083;27;20425;-53
2023/08/21 08:52:28;;;;;;;9.63;8.67;;;31.40;49.20;;;;;;5136130;27;20460;-57
2023/08/21 08:54:57;;;;;;;11.60;10.23;;;31.40;48.90;;;;;;5134494;27;20400;-53
2023/08/21 08:57:23;;;;;;;11.67;10.50;;;31.50;48.80;;;;;;5136067;27;20921;-53
2023/08/21 08:59:49;;;;;;;11.97;10.90;;;31.50;50.00;;;;;;5136094;27;20443;-57
2023/08/21 09:02:16;;;;;;;12.17;10.43;;;31.60;50.50;;;;;;5135800;27;20700;-54
2023/08/21 09:04:41;;;;;;;11.13;8.03;;;31.70;49.80;;;;;;5135603;27;20174;-58
2023/08/21 09:07:12;;;;;;;10.10;9.30;;;31.70;48.60;;;;;;5135996;27;20428;-59
2023/08/21 09:09:44;;;;;;;10.10;9.10;;;31.70;47.80;;;;;;5135725;27;20265;-56
2023/08/21 09:12:13;;;;;;;9.80;8.93;;;31.80;48.30;;;;;;5135696;27;20940;-52
2023/08/21 09:14:42;;;;;;;11.67;10.67;;;31.80;48.60;;;;;;5135418;27;20404;-52
2023/08/21 09:17:09;;;;;;;11.47;8.83;;;31.90;47.60;;;;;;5135549;27;20469;-52
2023/08/21 09:19:35;;;;;;;11.30;10.20;;;31.90;47.00;;;;;;5135625;27;20853;-55
2023/08/21 09:22:12;;;;;;;9.17;8.43;;;31.90;46.90;;;;;;5135546;27;20542;-54
2023/08/21 09:24:39;;;;;;;10.43;9.10;;;31.90;46.70;;;;;;5135202;27;20776;-54
2023/08/21 09:27:15;;;;;;;10.23;9.30;;;31.90;45.40;;;;;;5135476;27;20420;-56
2023/08/21 09:29:41;;;;;;;10.43;9.47;;;31.90;45.50;;;;;;5135456;27;20384;-56
2023/08/21 09:32:07;;;;;;;9.80;8.87;;;31.80;46.30;;;;;;5134005;27;20995;-52
2023/08/21 09:34:37;;;;;;;10.83;9.73;;;31.80;45.60;;;;;;5135210;27;20420;-53
2023/08/21 09:37:07;;;;;;;14.00;8.70;;;31.90;46.70;;;;;;5135306;27;20427;-56
2023/08/21 09:39:35;;;;;;;9.20;8.40;;;31.90;45.10;;;;;;5135207;27;20393;-53
2023/08/21 09:42:02;;;;;;;9.90;8.73;;;31.80;43.80;;;;;;5135051;27;20406;-56
2023/08/21 09:44:28;;;;;;;9.30;8.40;;;31.80;45.30;;;;;;5134606;27;20738;-57
2023/08/21 09:46:54;;;;;;;10.73;9.13;;;32.00;46.10;;;;;;5135197;27;20428;-52
2023/08/21 09:49:21;;;;;;;9.73;8.57;;;32.10;45.40;;;;;;5135009;27;20818;-58
2023/08/21 09:51:47;;;;;;;9.10;8.30;;;32.20;45.00;;;;;;5135182;27;20564;-53
2023/08/21 09:54:13;;;;;;;9.53;7.83;;;32.30;46.00;;;;;;5134628;27;20400;-55
2023/08/21 09:56:40;;;;;;;9.10;8.30;;;32.30;44.40;;;;;;5134772;27;20485;-57
2023/08/21 09:59:07;;;;;;;7.30;6.60;;;32.40;45.70;;;;;;5134901;27;20510;-52
2023/08/21 10:01:35;;;;;;;11.40;8.07;;;32.40;44.10;;;;;;5134790;27;20766;-54
2023/08/21 10:04:02;;;;;;;8.00;7.20;;;32.50;44.20;;;;;;5134776;27;20618;-56
2023/08/21 10:06:29;;;;;;;9.37;6.90;;;32.60;44.40;;;;;;5134476;27;20839;-52
2023/08/21 10:08:56;;;;;;;7.70;6.90;;;32.60;43.10;;;;;;5134484;27;20404;-52
2023/08/21 10:11:23;;;;;;;8.03;7.13;;;32.60;42.20;;;;;;5134533;27;20789;-57
2023/08/21 10:13:52;;;;;;;11.60;7.30;;;32.50;42.90;;;;;;5134683;27;20396;-55
2023/08/21 10:16:21;;;;;;;8.10;7.30;;;32.60;41.90;;;;;;5134228;27;20420;-52
2023/08/21 10:18:47;;;;;;;11.73;9.27;;;32.50;43.30;;;;;;5134477;27;20499;-53
2023/08/21 10:21:37;;;;;;;8.90;7.47;;;32.50;44.00;;;;;;5134442;27;20433;-51
2023/08/21 10:24:03;;;;;;;12.10;6.60;;;32.40;42.50;;;;;;5134097;27;20439;-57
2023/08/21 10:26:29;;;;;;;8.53;7.63;;;32.40;43.40;;;;;;5134016;27;20462;-52
2023/08/21 10:28:58;;;;;;;8.40;6.30;;;32.50;42.30;;;;;;5134229;27;20457;-52
2023/08/21 10:31:39;;;;;;;10.20;9.30;;;32.40;43.40;;;;;;5134099;27;20997;-56
2023/08/21 10:34:14;;;;;;;9.23;7.30;;;32.40;44.40;;;;;;5133854;27;20893;-54
2023/08/21 10:36:42;;;;;;;7.30;6.40;;;32.50;44.30;;;;;;5134108;27;20445;-54
2023/08/21 10:39:19;;;;;;;9.00;6.50;;;32.50;42.90;;;;;;5134007;27;20408;-54
2023/08/21 10:42:01;;;;;;;8.77;6.37;;;32.60;42.80;;;;;;5134090;27;20396;-55
2023/08/21 10:44:42;;;;;;;7.93;7.07;;;32.60;40.00;;;;;;5133780;27;20406;-58
2023/08/21 10:47:26;;;;;;;7.23;6.63;;;32.70;42.30;;;;;;5133913;27;20511;-53
2023/08/21 10:50:00;;;;;;;7.40;6.67;;;32.80;41.40;;;;;;5133913;27;20397;-52
2023/08/21 10:52:37;;;;;;;8.67;7.07;;;32.90;40.50;;;;;;5133743;27;20448;-55
2023/08/21 10:55:04;;;;;;;8.40;7.47;;;32.90;40.50;;;;;;5132828;27;20710;-53
2023/08/21 10:57:31;;;;;;;7.07;6.37;;;33.00;40.90;;;;;;5133731;27;20392;-51
2023/08/21 10:59:59;;;;;;;7.23;6.37;;;33.10;41.00;;;;;;5133727;27;20408;-53
2023/08/21 11:02:29;;;;;;;6.73;6.03;;;33.10;41.70;;;;;;5133707;27;21072;-56
2023/08/21 11:04:55;;;;;;;8.17;6.17;;;33.20;42.10;;;;;;5133660;27;20392;-52
2023/08/21 11:07:22;;;;;;;6.00;5.50;;;33.20;41.40;;;;;;5133443;27;20416;-52
2023/08/21 11:09:48;;;;;;;7.83;5.87;;;33.30;40.30;;;;;;5133455;27;20415;-56
2023/08/21 11:12:17;;;;;;;10.63;7.80;;;33.40;38.40;;;;;;5133432;27;20854;-52
2023/08/21 11:14:43;;;;;;;8.10;7.30;;;33.50;39.20;;;;;;5133536;27;20471;-52
2023/08/21 11:17:09;;;;;;;10.30;6.90;;;33.50;38.70;;;;;;5133460;27;20813;-56
2023/08/21 11:19:36;;;;;;;13.00;6.53;;;33.60;38.60;;;;;;5133332;27;20802;-52
2023/08/21 11:22:06;;;;;;;7.07;6.37;;;33.70;39.30;;;;;;5133159;27;20400;-53
2023/08/21 11:24:38;;;;;;;10.83;6.43;;;33.80;39.10;;;;;;5132994;27;20408;-57
2023/08/21 11:27:14;;;;;;;8.07;6.30;;;33.90;39.00;;;;;;5133406;27;20808;-53
2023/08/21 11:29:42;;;;;;;7.30;6.57;;;34.00;39.30;;;;;;5133171;27;20811;-51
2023/08/21 11:32:18;;;;;;;6.63;6.03;;;34.00;39.10;;;;;;5133119;27;20937;-57
2023/08/21 11:34:49;;;;;;;11.83;8.03;;;34.00;39.10;;;;;;5132766;27;20435;-55
2023/08/21 11:37:18;;;;;;;8.00;7.30;;;34.00;39.70;;;;;;5133158;27;20452;-51
2023/08/21 11:39:48;;;;;;;7.70;6.37;;;34.00;38.90;;;;;;5133201;27;20770;-54
2023/08/21 11:42:15;;;;;;;9.50;6.80;;;34.10;39.10;;;;;;5132975;27;20909;-58
2023/08/21 11:44:47;;;;;;;7.77;6.93;;;34.10;39.00;;;;;;5132824;27;20436;-52
2023/08/21 11:47:14;;;;;;;9.90;8.00;;;34.10;39.40;;;;;;5133199;27;20451;-52
2023/08/21 11:49:44;;;;;;;7.97;7.23;;;34.10;40.50;;;;;;5133157;27;20415;-55
2023/08/21 11:52:13;;;;;;;11.23;8.20;;;34.10;38.60;;;;;;5132859;27;20452;-52
2023/08/21 11:54:41;;;;;;;8.27;7.47;;;34.20;38.10;;;;;;5132663;27;20536;-52
2023/08/21 11:57:16;;;;;;;9.10;8.20;;;34.20;38.90;;;;;;5132792;27;20794;-54
2023/08/21 11:59:42;;;;;;;7.03;6.37;;;34.30;38.90;;;;;;5132847;28;20738;-52
2023/08/21 12:02:15;;;;;;;8.53;7.30;;;34.30;38.60;;;;;;5133090;27;20437;-52
2023/08/21 12:04:41;;;;;;;8.03;6.70;;;34.40;39.50;;;;;;5132867;27;20392;-53
2023/08/21 12:07:07;;;;;;;7.37;6.77;;;34.40;38.30;;;;;;5135764;27;20420;-57
2023/08/21 12:09:33;;;;;;;9.53;6.87;;;34.50;37.90;;;;;;5136979;27;20428;-53
2023/08/21 12:11:59;;;;;;;7.80;7.00;;;34.60;38.00;;;;;;5136895;27;20190;-53
2023/08/21 12:14:25;;;;;;;7.57;6.93;;;34.70;37.10;;;;;;5136702;27;20904;-52
2023/08/21 12:16:51;;;;;;;8.80;7.10;;;34.70;36.60;;;;;;5136766;27;20418;-52
2023/08/21 12:19:17;;;;;;;9.43;7.00;;;34.80;37.90;;;;;;5136813;27;20444;-54
2023/08/21 12:21:43;;;;;;;8.90;7.80;;;34.80;38.10;;;;;;5136711;27;20261;-54
2023/08/21 12:24:09;;;;;;;10.67;7.97;;;34.80;38.30;;;;;;5135175;27;20498;-57
2023/08/21 12:26:35;;;;;;;7.50;6.90;;;34.80;38.30;;;;;;5136431;27;20551;-57
2023/08/21 12:29:02;;;;;;;10.10;7.43;;;34.80;37.70;;;;;;5136534;27;20482;-53
2023/08/21 12:31:29;;;;;;;7.23;6.63;;;34.90;38.30;;;;;;5136692;27;20489;-55
2023/08/21 12:33:54;;;;;;;7.83;7.10;;;35.00;37.80;;;;;;5136620;27;20403;-52
2023/08/21 12:36:20;;;;;;;9.47;7.30;;;35.10;38.30;;;;;;5136102;27;20443;-52
2023/08/21 12:38:46;;;;;;;9.30;7.00;;;35.10;35.30;;;;;;5136402;27;20188;-54
2023/08/21 12:41:12;;;;;;;6.77;6.27;;;35.20;36.80;;;;;;5136550;27;20178;-53